createdAt,value
2018-05-12T00:02:14.985Z,12.70
2018-05-12T00:04:42.485Z,12.70
2018-05-12T00:07:10.760Z,11.80
2018-05-12T00:09:38.283Z,12.00
2018-05-12T00:12:06.911Z,12.00
2018-05-12T00:14:35.554Z,12.00
2018-05-12T00:17:03.061Z,12.10
2018-05-12T00:19:31.352Z,12.00
2018-05-12T00:21:59.620Z,12.00
2018-05-12T00:24:27.158Z,11.50
2018-05-12T00:26:54.667Z,11.40
2018-05-12T00:29:22.551Z,13.70
2018-05-12T00:31:51.209Z,11.70
2018-05-12T00:34:19.487Z,11.70
2018-05-12T00:36:48.565Z,11.70
2018-05-12T00:39:16.464Z,11.70
2018-05-12T00:41:43.997Z,12.40
2018-05-12T00:44:11.908Z,11.60
2018-05-12T00:46:40.188Z,11.60
2018-05-12T00:49:07.715Z,12.20
2018-05-12T00:54:04.839Z,11.70
2018-05-12T00:56:33.359Z,12.20
2018-05-12T00:59:01.703Z,11.30
2018-05-12T01:01:29.205Z,11.30
2018-05-12T01:03:56.749Z,10.90
2018-05-12T01:06:25.759Z,11.40
2018-05-12T01:08:53.643Z,11.10
2018-05-12T01:11:22.660Z,11.30
2018-05-12T01:13:50.186Z,11.00
2018-05-12T01:16:17.707Z,11.90
2018-05-12T01:18:45.679Z,10.90
2018-05-12T01:21:13.212Z,11.10
2018-05-12T01:23:41.496Z,11.20
2018-05-12T01:26:09.047Z,10.70
2018-05-12T01:28:37.337Z,11.20
2018-05-12T01:31:04.848Z,11.10
2018-05-12T01:33:32.360Z,11.20
2018-05-12T01:35:59.895Z,10.90
2018-05-12T01:38:27.408Z,11.60
2018-05-12T01:40:55.562Z,11.60
2018-05-12T01:43:23.084Z,11.30
2018-05-12T01:45:50.577Z,10.30
2018-05-12T01:48:19.039Z,11.80
2018-05-12T01:50:46.959Z,10.10
2018-05-12T01:53:14.486Z,11.60
2018-05-12T01:55:42.005Z,11.60
2018-05-12T01:58:10.306Z,11.00
2018-05-12T02:03:06.704Z,11.50
2018-05-12T02:05:34.232Z,11.00
2018-05-12T02:08:02.517Z,10.70
2018-05-12T02:10:30.842Z,10.70
2018-05-12T02:12:58.348Z,11.20
2018-05-12T02:15:26.648Z,10.70
2018-05-12T02:17:54.922Z,10.70
2018-05-12T02:20:23.202Z,10.60
2018-05-12T02:22:51.462Z,10.70
2018-05-12T02:25:19.469Z,10.70
2018-05-12T02:27:47.713Z,10.70
2018-05-12T02:32:46.040Z,10.70
2018-05-12T02:35:14.686Z,10.60
2018-05-12T02:37:42.980Z,10.60
2018-05-12T02:40:11.258Z,10.50
2018-05-12T02:42:39.536Z,10.50
2018-05-12T02:45:07.802Z,10.40
2018-05-12T02:47:36.092Z,10.40
2018-05-12T02:50:03.604Z,10.80
2018-05-12T02:52:31.526Z,10.40
2018-05-12T02:54:59.044Z,10.90
2018-05-12T02:57:26.558Z,10.80
2018-05-12T02:59:54.072Z,10.70
2018-05-12T03:02:22.341Z,10.50
2018-05-12T03:04:50.258Z,11.30
2018-05-12T03:07:17.756Z,9.00
2018-05-12T03:09:45.635Z,10.30
2018-05-12T03:12:14.368Z,10.40
2018-05-12T03:14:42.310Z,10.10
2018-05-12T03:17:10.582Z,10.50
2018-05-12T03:19:38.501Z,10.40
2018-05-12T03:22:06.806Z,10.30
2018-05-12T03:24:35.459Z,10.30
2018-05-12T03:27:02.978Z,11.70
2018-05-12T03:29:31.248Z,10.20
2018-05-12T03:31:59.542Z,10.20
2018-05-12T03:34:27.044Z,9.50
2018-05-12T03:36:54.561Z,9.90
2018-05-12T03:39:22.499Z,10.10
2018-05-12T03:41:51.180Z,10.10
2018-05-12T03:44:19.803Z,10.10
2018-05-12T03:46:48.078Z,10.10
2018-05-12T03:49:16.748Z,10.10
2018-05-12T03:51:45.011Z,10.10
2018-05-12T03:56:41.378Z,9.30
2018-05-12T03:59:09.332Z,10.10
2018-05-12T04:01:37.956Z,10.20
2018-05-12T04:04:05.479Z,10.80
2018-05-12T04:06:44.994Z,10.40
2018-05-12T04:09:25.402Z,10.10
2018-05-12T04:12:04.906Z,10.20
2018-05-12T04:14:33.924Z,10.10
2018-05-12T04:17:02.223Z,10.10
2018-05-12T04:19:30.131Z,9.70
2018-05-12T04:21:57.643Z,9.70
2018-05-12T04:24:25.184Z,10.40
2018-05-12T04:29:21.734Z,10.00
2018-05-12T04:31:49.667Z,10.10
2018-05-12T04:34:17.162Z,8.90
2018-05-12T04:36:45.443Z,10.20
2018-05-12T04:39:13.349Z,10.30
2018-05-12T04:41:40.866Z,11.50
2018-05-12T04:44:09.153Z,10.40
2018-05-12T04:46:37.047Z,10.50
2018-05-12T04:49:04.577Z,10.70
2018-05-12T04:51:32.856Z,10.60
2018-05-12T04:54:01.139Z,10.70
2018-05-12T04:56:28.635Z,10.90
2018-05-12T04:58:56.174Z,11.40
2018-05-12T05:01:23.677Z,10.80
2018-05-12T05:03:51.591Z,11.00
2018-05-12T05:06:19.469Z,11.60
2018-05-12T05:08:47.361Z,11.40
2018-05-12T05:11:15.669Z,11.30
2018-05-12T05:13:43.168Z,11.30
2018-05-12T05:16:11.448Z,11.50
2018-05-12T05:18:39.355Z,11.30
2018-05-12T05:21:06.934Z,11.90
2018-05-12T05:23:34.406Z,12.80
2018-05-12T05:26:02.311Z,11.90
2018-05-12T05:28:30.635Z,12.00
2018-05-12T05:30:59.376Z,11.80
2018-05-12T05:33:26.912Z,12.00
2018-05-12T05:35:55.362Z,11.40
2018-05-12T05:38:22.894Z,11.70
2018-05-12T05:40:51.161Z,12.50
2018-05-12T05:43:18.681Z,12.60
2018-05-12T05:45:46.968Z,12.80
2018-05-12T05:48:15.250Z,12.90
2018-05-12T05:50:43.180Z,13.00
2018-05-12T05:53:10.688Z,12.90
2018-05-12T05:55:38.208Z,13.70
2018-05-12T05:58:06.533Z,13.40
2018-05-12T06:00:34.058Z,11.90
2018-05-12T06:03:02.347Z,13.60
2018-05-12T06:05:30.276Z,15.60
2018-05-12T06:07:58.420Z,13.70
2018-05-12T06:10:26.321Z,14.40
2018-05-12T06:12:53.838Z,16.40
2018-05-12T06:15:21.338Z,15.10
2018-05-12T06:17:48.880Z,15.70
2018-05-12T06:20:17.156Z,15.60
2018-05-12T06:22:44.660Z,14.70
2018-05-12T06:25:12.934Z,16.10
2018-05-12T06:27:41.206Z,16.50
2018-05-12T06:30:09.493Z,16.70
2018-05-12T06:32:37.006Z,16.90
2018-05-12T06:35:05.294Z,16.90
2018-05-12T06:37:32.855Z,16.90
2018-05-12T06:40:00.370Z,17.40
2018-05-12T06:42:28.270Z,17.40
2018-05-12T06:44:57.075Z,17.60
2018-05-12T06:47:25.741Z,17.80
2018-05-12T06:49:53.257Z,18.10
2018-05-12T06:52:20.827Z,17.90
2018-05-12T06:54:48.394Z,17.90
2018-05-12T06:57:15.920Z,18.00
2018-05-12T06:59:44.187Z,18.30
2018-05-12T07:02:12.485Z,18.50
2018-05-12T07:04:40.000Z,18.70
2018-05-12T07:07:08.291Z,18.90
2018-05-12T07:09:35.806Z,19.00
2018-05-12T07:12:03.723Z,18.70
2018-05-12T07:14:31.999Z,18.50
2018-05-12T07:16:59.930Z,18.70
2018-05-12T07:19:27.537Z,17.90
2018-05-12T07:21:55.358Z,19.00
2018-05-12T07:24:22.883Z,19.20
2018-05-12T07:26:50.796Z,18.70
2018-05-12T07:29:18.575Z,18.30
2018-05-12T07:31:46.520Z,18.40
2018-05-12T07:34:14.016Z,18.90
2018-05-12T07:36:42.285Z,18.40
2018-05-12T07:39:10.607Z,18.80
2018-05-12T07:41:38.107Z,19.50
2018-05-12T07:44:05.609Z,19.40
2018-05-12T07:46:33.529Z,20.30
2018-05-12T07:49:01.042Z,19.30
2018-05-12T07:51:28.558Z,19.90
2018-05-12T07:53:57.575Z,20.40
2018-05-12T07:56:25.885Z,20.70
2018-05-12T07:58:54.547Z,21.00
2018-05-12T08:01:22.843Z,21.30
2018-05-12T08:03:51.498Z,21.00
2018-05-12T08:06:19.784Z,21.30
2018-05-12T08:08:48.043Z,21.20
2018-05-12T08:11:16.307Z,21.30
2018-05-12T08:13:43.821Z,20.50
2018-05-12T08:16:11.325Z,22.60
2018-05-12T08:18:38.858Z,21.90
2018-05-12T08:21:06.379Z,21.30
2018-05-12T08:23:33.899Z,21.80
2018-05-12T08:26:01.424Z,22.10
2018-05-12T08:28:28.961Z,22.40
2018-05-12T08:30:57.247Z,22.00
2018-05-12T08:33:24.763Z,21.00
2018-05-12T08:35:52.693Z,21.50
2018-05-12T08:38:20.197Z,21.30
2018-05-12T08:40:48.486Z,21.80
2018-05-12T08:43:16.763Z,21.80
2018-05-12T08:45:45.043Z,22.10
2018-05-12T08:48:13.319Z,22.20
2018-05-12T08:50:40.858Z,21.20
2018-05-12T08:53:09.129Z,22.70
2018-05-12T08:55:36.672Z,22.80
2018-05-12T08:58:04.948Z,23.00
2018-05-12T09:00:32.470Z,23.40
2018-05-12T09:02:59.980Z,23.40
2018-05-12T09:05:27.482Z,23.60
2018-05-12T09:07:55.783Z,24.40
2018-05-12T09:10:23.287Z,24.10
2018-05-12T09:12:51.593Z,24.40
2018-05-12T09:15:19.089Z,24.10
2018-05-12T09:17:46.617Z,23.30
2018-05-12T09:20:14.124Z,24.90
2018-05-12T09:22:41.653Z,23.40
2018-05-12T09:25:09.169Z,23.20
2018-05-12T09:27:37.098Z,24.50
2018-05-12T09:30:04.606Z,26.80
2018-05-12T09:32:32.092Z,24.30
2018-05-12T09:35:00.020Z,25.40
2018-05-12T09:37:28.295Z,25.50
2018-05-12T09:39:56.202Z,25.60
2018-05-12T09:42:24.538Z,26.00
2018-05-12T09:44:52.066Z,24.80
2018-05-12T09:47:19.562Z,27.20
2018-05-12T09:49:47.876Z,27.20
2018-05-12T09:52:15.410Z,26.90
2018-05-12T09:54:43.672Z,28.20
2018-05-12T09:57:12.272Z,28.00
2018-05-12T09:59:39.779Z,26.60
2018-05-12T10:02:07.693Z,27.80
2018-05-12T10:04:35.960Z,28.40
2018-05-12T10:07:04.254Z,27.90
2018-05-12T10:09:32.148Z,26.80
2018-05-12T10:11:59.672Z,29.00
2018-05-12T10:14:27.942Z,27.90
2018-05-12T10:16:56.214Z,27.70
2018-05-12T10:19:23.746Z,28.80
2018-05-12T10:21:52.800Z,28.60
2018-05-12T10:24:20.320Z,28.10
2018-05-12T10:26:48.222Z,29.00
2018-05-12T10:29:17.038Z,28.20
2018-05-12T10:31:44.538Z,27.60
2018-05-12T10:34:12.833Z,27.50
2018-05-12T10:36:41.106Z,26.80
2018-05-12T10:39:09.378Z,27.10
2018-05-12T10:41:37.655Z,28.00
2018-05-12T10:44:05.932Z,28.50
2018-05-12T10:46:34.211Z,28.20
2018-05-12T10:49:02.502Z,27.40
2018-05-12T10:51:29.996Z,27.50
2018-05-12T10:53:57.503Z,26.30
2018-05-12T10:56:25.792Z,28.20
2018-05-12T10:58:53.283Z,30.20
2018-05-12T11:01:21.185Z,28.70
2018-05-12T11:03:49.539Z,29.20
2018-05-12T11:06:17.440Z,26.50
2018-05-12T11:08:45.457Z,26.30
2018-05-12T11:11:12.965Z,27.20
2018-05-12T11:13:40.852Z,26.80
2018-05-12T11:16:09.242Z,27.60
2018-05-12T11:18:36.678Z,27.90
2018-05-12T11:21:04.943Z,28.40
2018-05-12T11:23:32.455Z,28.30
2018-05-12T11:25:59.939Z,27.40
2018-05-12T11:28:28.213Z,27.40
2018-05-12T11:30:55.706Z,27.70
2018-05-12T11:33:23.985Z,27.60
2018-05-12T11:35:52.248Z,28.20
2018-05-12T11:38:19.771Z,29.40
2018-05-12T11:40:47.267Z,28.40
2018-05-12T11:43:14.764Z,28.50
2018-05-12T11:45:42.274Z,27.50
2018-05-12T11:48:09.777Z,29.80
2018-05-12T11:50:37.691Z,29.30
2018-05-12T11:53:06.451Z,29.60
2018-05-12T11:55:34.355Z,29.90
2018-05-12T11:58:01.890Z,29.70
2018-05-12T12:00:30.180Z,30.20
2018-05-12T12:02:57.720Z,31.20
2018-05-12T12:05:25.236Z,29.50
2018-05-12T12:07:53.125Z,28.80
2018-05-12T12:10:21.041Z,30.40
2018-05-12T12:12:48.570Z,30.60
2018-05-12T12:15:16.068Z,30.40
2018-05-12T12:17:43.592Z,29.80
2018-05-12T12:20:11.855Z,30.30
2018-05-12T12:22:39.386Z,30.90
2018-05-12T12:25:07.668Z,30.50
2018-05-12T12:27:35.928Z,30.60
2018-05-12T12:30:03.436Z,31.40
2018-05-12T12:32:30.930Z,29.20
2018-05-12T12:34:58.853Z,29.00
2018-05-12T12:37:26.356Z,26.70
2018-05-12T12:39:53.885Z,27.40
2018-05-12T12:42:21.399Z,25.30
2018-05-12T12:44:49.689Z,26.30
2018-05-12T12:47:17.981Z,26.40
2018-05-12T12:49:45.479Z,26.80
2018-05-12T12:52:13.458Z,26.80
2018-05-12T12:54:40.955Z,26.90
2018-05-12T12:57:09.236Z,26.10
2018-05-12T12:59:37.515Z,25.80
2018-05-12T13:02:05.799Z,25.50
2018-05-12T13:04:34.071Z,25.60
2018-05-12T13:07:01.577Z,24.20
2018-05-12T13:09:29.067Z,25.90
2018-05-12T13:11:57.342Z,25.60
2018-05-12T13:14:25.264Z,25.90
2018-05-12T13:16:52.753Z,25.30
2018-05-12T13:21:55.489Z,25.60
2018-05-12T13:24:23.971Z,25.00
2018-05-12T13:26:51.473Z,25.60
2018-05-12T13:29:19.010Z,25.40
2018-05-12T13:31:47.279Z,25.10
2018-05-12T13:34:15.188Z,23.50
2018-05-12T13:36:42.710Z,26.10
2018-05-12T13:39:10.236Z,25.50
2018-05-12T13:41:38.515Z,25.30
2018-05-12T13:44:06.030Z,25.30
2018-05-12T13:46:35.052Z,25.40
2018-05-12T13:49:03.313Z,25.50
2018-05-12T13:51:30.834Z,25.00
2018-05-12T13:53:58.597Z,25.90
2018-05-12T13:56:26.459Z,25.70
2018-05-12T13:58:54.372Z,25.90
2018-05-12T14:01:21.872Z,26.30
2018-05-12T14:03:49.387Z,25.90
2018-05-12T14:06:16.913Z,26.00
2018-05-12T14:08:44.670Z,25.60
2018-05-12T14:11:12.574Z,25.10
2018-05-12T14:13:40.136Z,27.00
2018-05-12T14:16:08.434Z,25.90
2018-05-12T14:18:35.908Z,26.50
2018-05-12T14:21:03.411Z,26.20
2018-05-12T14:23:30.951Z,25.60
2018-05-12T14:25:58.476Z,26.80
2018-05-12T14:28:26.740Z,25.90
2018-05-12T14:30:54.638Z,25.80
2018-05-12T14:33:22.162Z,26.20
2018-05-12T14:35:49.677Z,25.90
2018-05-12T14:38:17.195Z,26.10
2018-05-12T14:40:45.456Z,25.90
2018-05-12T14:43:12.981Z,25.80
2018-05-12T14:45:40.862Z,25.00
2018-05-12T14:48:08.747Z,26.30
2018-05-12T14:50:37.036Z,25.80
2018-05-12T14:53:05.311Z,25.80
2018-05-12T14:55:33.580Z,25.80
2018-05-12T14:58:01.102Z,25.40
2018-05-12T15:00:28.618Z,26.20
2018-05-12T15:02:56.897Z,26.10
2018-05-12T15:05:24.411Z,26.10
2018-05-12T15:07:52.307Z,26.20
2018-05-12T15:10:20.587Z,25.80
2018-05-12T15:12:48.854Z,25.50
2018-05-12T15:15:16.343Z,25.40
2018-05-12T15:17:44.622Z,25.10
2018-05-12T15:20:12.131Z,24.60
2018-05-12T15:22:39.635Z,24.60
2018-05-12T15:25:07.146Z,24.70
2018-05-12T15:27:35.422Z,25.10
2018-05-12T15:30:04.479Z,25.30
2018-05-12T15:32:32.371Z,25.30
2018-05-12T15:34:59.902Z,25.00
2018-05-12T15:37:27.467Z,24.50
2018-05-12T15:39:54.960Z,25.10
2018-05-12T15:42:22.459Z,25.00
2018-05-12T15:44:50.736Z,25.20
2018-05-12T15:47:19.004Z,25.40
2018-05-12T15:49:47.286Z,25.40
2018-05-12T15:52:15.538Z,25.30
2018-05-12T15:54:43.068Z,24.40
2018-05-12T15:57:10.527Z,24.00
2018-05-12T15:59:38.066Z,25.90
2018-05-12T16:02:06.356Z,25.70
2018-05-12T16:04:33.868Z,25.70
2018-05-12T16:07:02.152Z,25.80
2018-05-12T16:09:30.401Z,25.80
2018-05-12T16:11:58.694Z,25.80
2018-05-12T16:14:26.960Z,25.80
2018-05-12T16:16:54.472Z,26.00
2018-05-12T16:19:21.980Z,25.40
2018-05-12T16:21:49.471Z,25.30
2018-05-12T16:24:17.765Z,25.40
2018-05-12T16:26:45.267Z,25.10
2018-05-12T16:29:12.811Z,25.00
2018-05-12T16:31:40.356Z,25.50
2018-05-12T16:34:08.629Z,24.70
2018-05-12T16:36:36.122Z,24.20
2018-05-12T16:39:03.635Z,24.50
2018-05-12T16:41:31.140Z,24.30
2018-05-12T16:44:00.176Z,24.20
2018-05-12T16:46:27.672Z,24.00
2018-05-12T16:48:55.166Z,25.20
2018-05-12T16:51:23.443Z,23.70
2018-05-12T16:53:51.705Z,23.60
2018-05-12T16:56:19.622Z,23.40
2018-05-12T16:58:47.502Z,23.60
2018-05-12T17:01:15.016Z,24.40
2018-05-12T17:03:42.926Z,23.10
2018-05-12T17:06:10.464Z,22.20
2018-05-12T17:08:37.974Z,23.30
2018-05-12T17:11:05.463Z,23.70
2018-05-12T17:13:33.744Z,22.90
2018-05-12T17:16:02.034Z,22.90
2018-05-12T17:18:29.558Z,23.80
2018-05-12T17:20:57.054Z,23.30
2018-05-12T17:23:24.662Z,22.30
2018-05-12T17:25:52.889Z,23.00
2018-05-12T17:28:20.418Z,23.60
2018-05-12T17:30:48.680Z,23.00
2018-05-12T17:33:16.982Z,23.00
2018-05-12T17:35:44.899Z,23.00
2018-05-12T17:38:12.831Z,23.00
2018-05-12T17:40:40.340Z,23.20
2018-05-12T17:43:07.883Z,24.20
2018-05-12T17:45:36.172Z,23.20
2018-05-12T17:48:04.076Z,23.50
2018-05-12T17:50:31.988Z,23.10
2018-05-12T17:52:59.543Z,22.70
2018-05-12T17:55:27.802Z,22.70
2018-05-12T17:57:56.080Z,22.50
2018-05-12T18:00:23.660Z,21.60
2018-05-12T18:02:51.212Z,23.20
2018-05-12T18:05:18.725Z,21.90
2018-05-12T18:07:46.639Z,21.80
2018-05-12T18:10:14.548Z,22.00
2018-05-12T18:12:42.064Z,21.60
2018-05-12T18:15:09.966Z,20.80
2018-05-12T18:17:37.864Z,23.10
2018-05-12T18:20:05.836Z,20.90
2018-05-12T18:22:33.719Z,19.90
2018-05-12T18:25:01.641Z,20.60
2018-05-12T18:27:29.151Z,20.80
2018-05-12T18:29:58.157Z,20.90
2018-05-12T18:32:25.710Z,19.90
2018-05-12T18:34:53.235Z,21.00
2018-05-12T18:37:20.764Z,20.10
2018-05-12T18:39:49.027Z,20.60
2018-05-12T18:42:18.219Z,20.70
2018-05-12T18:47:14.609Z,20.90
2018-05-12T18:49:42.225Z,20.30
2018-05-12T18:52:09.738Z,21.00
2018-05-12T18:54:38.055Z,20.70
2018-05-12T18:57:05.564Z,20.50
2018-05-12T18:59:34.602Z,20.70
2018-05-12T19:02:02.499Z,20.00
2018-05-12T19:04:30.100Z,20.30
2018-05-12T19:06:58.752Z,20.40
2018-05-12T19:09:26.269Z,19.80
2018-05-12T19:11:53.791Z,20.40
2018-05-12T19:14:22.469Z,20.10
2018-05-12T19:16:50.784Z,20.10
2018-05-12T19:21:47.628Z,20.00
2018-05-12T19:24:15.918Z,20.00
2018-05-12T19:26:44.226Z,19.90
2018-05-12T19:29:11.799Z,20.00
2018-05-12T19:31:39.331Z,18.90
2018-05-12T19:34:06.823Z,20.30
2018-05-12T19:36:35.287Z,18.40
2018-05-12T19:39:02.835Z,19.20
2018-05-12T19:41:31.119Z,17.90
2018-05-12T19:43:58.631Z,19.60
2018-05-12T19:46:26.932Z,19.20
2018-05-12T19:48:55.209Z,19.10
2018-05-12T19:51:23.539Z,19.00
2018-05-12T19:53:51.059Z,19.80
2018-05-12T19:56:18.576Z,18.70
2018-05-12T19:58:46.505Z,16.80
2018-05-12T20:01:14.024Z,18.50
2018-05-12T20:03:42.382Z,18.80
2018-05-12T20:06:09.828Z,18.90
2018-05-12T20:08:37.361Z,18.00
2018-05-12T20:11:05.744Z,18.50
2018-05-12T20:13:33.663Z,18.60
2018-05-12T20:16:02.364Z,18.50
2018-05-12T20:18:32.731Z,18.40
2018-05-12T20:21:00.241Z,18.70
2018-05-12T20:23:27.795Z,18.50
2018-05-12T20:25:55.724Z,18.20
2018-05-12T20:28:23.989Z,18.10
2018-05-12T20:30:51.519Z,19.80
2018-05-12T20:33:19.349Z,17.50
2018-05-12T20:35:46.956Z,18.10
2018-05-12T20:38:16.007Z,17.90
2018-05-12T20:40:44.721Z,17.80
2018-05-12T20:43:12.270Z,18.20
2018-05-12T20:45:40.546Z,17.60
2018-05-12T20:48:09.338Z,17.60
2018-05-12T20:50:37.641Z,17.50
2018-05-12T20:53:05.307Z,18.30
2018-05-12T20:55:32.837Z,18.00
2018-05-12T20:58:00.805Z,17.60
2018-05-12T21:00:28.727Z,17.40
2018-05-12T21:02:56.984Z,17.30
2018-05-12T21:05:24.536Z,16.80
2018-05-12T21:07:52.052Z,16.70
2018-05-12T21:10:20.357Z,17.10
2018-05-12T21:12:47.867Z,17.30
2018-05-12T21:15:15.395Z,17.20
2018-05-12T21:17:42.913Z,15.60
2018-05-12T21:20:10.447Z,16.10
2018-05-12T21:22:39.083Z,16.70
2018-05-12T21:25:06.613Z,17.40
2018-05-12T21:27:34.887Z,16.70
2018-05-12T21:30:03.166Z,16.60
2018-05-12T21:32:31.085Z,17.40
2018-05-12T21:34:59.021Z,16.70
2018-05-12T21:37:26.544Z,16.40
2018-05-12T21:39:54.045Z,17.10
2018-05-12T21:42:21.951Z,16.30
2018-05-12T21:44:50.589Z,16.20
2018-05-12T21:47:19.637Z,16.10
2018-05-12T21:49:47.892Z,16.10
2018-05-12T21:52:15.804Z,16.00
2018-05-12T21:54:44.456Z,15.90
2018-05-12T21:57:11.993Z,15.90
2018-05-12T21:59:40.623Z,15.90
2018-05-12T22:02:08.143Z,17.60
2018-05-12T22:04:35.656Z,16.90
2018-05-12T22:07:03.977Z,15.90
2018-05-12T22:09:31.506Z,16.40
2018-05-12T22:11:59.782Z,15.90
2018-05-12T22:14:28.092Z,15.80
2018-05-12T22:16:55.589Z,15.90
2018-05-12T22:19:23.113Z,14.50
2018-05-12T22:21:51.070Z,15.10
2018-05-12T22:24:19.359Z,15.50
2018-05-12T22:26:47.643Z,15.50
2018-05-12T22:29:15.180Z,15.50
2018-05-12T22:31:42.693Z,15.80
2018-05-12T22:34:10.201Z,14.10
2018-05-12T22:36:37.768Z,15.00
2018-05-12T22:39:05.317Z,15.00
2018-05-12T22:41:33.607Z,15.90
2018-05-12T22:44:01.150Z,15.70
2018-05-12T22:46:29.064Z,15.90
2018-05-12T22:48:56.590Z,15.70
2018-05-12T22:51:24.869Z,15.70
2018-05-12T22:53:52.411Z,15.10
2018-05-12T22:56:20.698Z,15.60
2018-05-12T22:58:48.206Z,15.50
2018-05-12T23:01:16.102Z,15.80
2018-05-12T23:03:44.378Z,15.60
2018-05-12T23:06:12.641Z,15.60
2018-05-12T23:08:40.555Z,15.40
2018-05-12T23:11:08.062Z,16.10
2018-05-12T23:13:37.096Z,15.60
2018-05-12T23:16:04.658Z,16.60
2018-05-12T23:18:32.269Z,15.60
2018-05-12T23:20:59.742Z,15.90
2018-05-12T23:23:27.267Z,16.20
2018-05-12T23:25:54.778Z,15.50
2018-05-12T23:28:23.889Z,15.50
2018-05-12T23:30:51.824Z,15.40
2018-05-12T23:33:20.100Z,15.50
2018-05-12T23:35:47.710Z,16.50
2018-05-12T23:38:15.266Z,14.70
2018-05-12T23:40:43.555Z,15.40
2018-05-12T23:43:11.058Z,15.20
2018-05-12T23:45:38.567Z,16.10
2018-05-12T23:48:06.130Z,14.70
2018-05-12T23:53:02.469Z,13.80
2018-05-12T23:55:30.364Z,15.20
2018-05-12T23:57:57.876Z,15.30
